WetterOnline ( https://www.wetteronline.de )

Wetter aktuell Klagenfurt

Aktuelles Wetter: Klagenfurt Flughafen (476m)

6-stündlich | Neueste Meldungen
Ortszeit Temperatur Wetter
Do, 25.04. 14:00 22.6° C leicht bewölkt
Do, 25.04. 8:00 11.5° C leicht bewölkt
Do, 25.04. 2:00 11.2° C wolkig
Mi, 24.04. 20:00 16.5° C wolkig
Mi, 24.04. 14:00 17.7° C wolkig
Mi, 24.04. 8:00 10.6° C bedeckt
Mi, 24.04. 2:00 10.1° C leichte Schauer
Di, 23.04. 20:00 10.7° C Sprühregen
Ortszeit Temperatur Wetter
Do, 25.04. 18:00 20.0° C wolkig
Do, 25.04. 17:50 20° C leicht bewölkt
Do, 25.04. 17:20 21° C leicht bewölkt
Do, 25.04. 17:00 21.8° C leicht bewölkt
Do, 25.04. 16:50 22° C leicht bewölkt
Do, 25.04. 16:20 22° C leicht bewölkt
Do, 25.04. 16:00 22.7° C leicht bewölkt
Do, 25.04. 15:20 23° C leicht bewölkt
Do, 25.04. 15:00 22.5° C leicht bewölkt
Ortszeit Relative Feuchte Sichtweite
Do, 25.04. 14:00 31% 65 km
Do, 25.04. 8:00 81% 30 km
Do, 25.04. 2:00 84% 28 km
Mi, 24.04. 20:00 63% 45 km
Mi, 24.04. 14:00 61% 50 km
Mi, 24.04. 8:00 93% 23 km
Mi, 24.04. 2:00 94% 5.0 km
Di, 23.04. 20:00 88% 19 km
Ortszeit Relative Feuchte Sichtweite
Do, 25.04. 18:00 41% 50 km
Do, 25.04. 17:50 43% >10 km
Do, 25.04. 17:20 38% >10 km
Do, 25.04. 17:00 36% 45 km
Do, 25.04. 16:50 35% >10 km
Do, 25.04. 16:20 35% >10 km
Do, 25.04. 16:00 34% 45 km
Do, 25.04. 15:20 33% >10 km
Do, 25.04. 15:00 31% 45 km
Ortszeit Niederschlagsmenge Niederschlagsart
Do, 25.04. 14:00 keine Meldung -
Do, 25.04. 8:00 keine Meldung -
Do, 25.04. 2:00 keine Meldung -
Mi, 24.04. 20:00 0.1 l/m2 in 12 Std. -
Mi, 24.04. 14:00 0.1 l/m2 in 6 Std. -
Mi, 24.04. 8:00 3 l/m2 in 12 Std. -
Mi, 24.04. 2:00 2 l/m2 in 6 Std. -
Di, 23.04. 20:00 4 l/m2 in 12 Std. -
Ortszeit Niederschlagsmenge Niederschlagsart
Do, 25.04. 18:00 0.0 l/m2 in 1 Std. -
Do, 25.04. 17:50 keine Meldung -
Do, 25.04. 17:20 keine Meldung -
Do, 25.04. 17:00 0.0 l/m2 in 1 Std. -
Do, 25.04. 16:50 keine Meldung -
Do, 25.04. 16:20 keine Meldung -
Do, 25.04. 16:00 0.0 l/m2 in 1 Std. -
Do, 25.04. 15:20 keine Meldung -
Do, 25.04. 15:00 0.0 l/m2 in 1 Std. -
Ortszeit Stärke Spitze Richtung
km/h Bft. km/h Grad Sektor
Do, 25.04. 14:00 18 3 - 270° W
Do, 25.04. 8:00 11 2 - - -
Do, 25.04. 2:00 4 1 - - -
Mi, 24.04. 20:00 7 2 - - -
Mi, 24.04. 14:00 7 2 - - -
Mi, 24.04. 8:00 7 2 - - -
Mi, 24.04. 2:00 4 1 - - -
Di, 23.04. 20:00 4 1 - - -
Ortszeit Stärke Spitze Richtung
km/h Bft. km/h Grad Sektor
Do, 25.04. 18:00 14 3 - 230° SW
Do, 25.04. 17:50 15 3 - 230° SW
Do, 25.04. 17:20 15 3 - 240° SW
Do, 25.04. 17:00 14 3 - 250° W
Do, 25.04. 16:50 15 3 - 250° W
Do, 25.04. 16:20 15 3 - 260° W
Do, 25.04. 16:00 14 3 - 210° SW
Do, 25.04. 15:20 13 3 - 290° W
Do, 25.04. 15:00 14 3 - 260° W
Ortszeit Untergrenze Bedeckung Gattung
total tief tief mittel hoch
Do, 25.04. 14:00 1500 m 3/8 1/8 Cu - Ci
Do, 25.04. 8:00 1350 m 2/8 1/8 Cu - -
Do, 25.04. 2:00 1800 m 5/8 5/8 - - -
Mi, 24.04. 20:00 1500 m 5/8 5/8 - - -
Mi, 24.04. 14:00 720 m 6/8 5/8 Sc - -
Mi, 24.04. 8:00 120 m 8/8 8/8 St - -
Mi, 24.04. 2:00 270 m 8/8 7/8 - - -
Di, 23.04. 20:00 330 m 8/8 5/8 - - -
Ortszeit Bedeckungsgrad in Achtel und Wolkenuntergrenze
Do, 25.04. 18:00 2(1800m) 4(9000m)
Do, 25.04. 17:50 1-2(1800m) 3-4(9000m)
Do, 25.04. 17:20 1-2(2100m) 3-4(9000m)
Do, 25.04. 17:00 1(1800m) 3(9000m)
Do, 25.04. 16:50 1-2(1800m) 3-4(9000m)
Do, 25.04. 16:20 1-2(1800m) 3-4(9000m)
Do, 25.04. 16:00 1(1800m) 3(9000m)
Do, 25.04. 15:20 1-2(1500m) 3-4(9000m)
Do, 25.04. 15:00 1(1500m) 3(9000m)
Ortszeit Luftdruck NN (hPa) Tendenz (hPa in 3 Std.)
Do, 25.04. 14:00 1015 - 0,8
Do, 25.04. 8:00 1018 + 0,4
Do, 25.04. 2:00 1016 + 1,2
Mi, 24.04. 20:00 1013 + 0,2
Mi, 24.04. 14:00 1013 - 0,2
Mi, 24.04. 8:00 1014 + 1,4
Mi, 24.04. 2:00 1012 0,0
Di, 23.04. 20:00 1011 + 0,2
Ortszeit Luftdruck NN (hPa) Tendenz (hPa in 3 Std.)
Do, 25.04. 18:00 1015 + 0,1
Do, 25.04. 17:50 1017 keine Meldung
Do, 25.04. 17:20 1016 keine Meldung
Do, 25.04. 17:00 1015 - 0,2
Do, 25.04. 16:50 1016 keine Meldung
Do, 25.04. 16:20 1016 keine Meldung
Do, 25.04. 16:00 1014 - 0,8
Do, 25.04. 15:20 1016 keine Meldung
Do, 25.04. 15:00 1015 - 1,0
Ortszeit Schneehöhe (cm)
Do, 25.04. 14:00 -
Do, 25.04. 8:00 -
Do, 25.04. 2:00 -
Mi, 24.04. 20:00 -
Mi, 24.04. 14:00 -
Mi, 24.04. 8:00 -
Mi, 24.04. 2:00 -
Di, 23.04. 20:00 -
Ortszeit Schneehöhe (cm)
Do, 25.04. 18:00 -
Do, 25.04. 17:50 -
Do, 25.04. 17:20 -
Do, 25.04. 17:00 -
Do, 25.04. 16:50 -
Do, 25.04. 16:20 -
Do, 25.04. 16:00 -
Do, 25.04. 15:20 -
Do, 25.04. 15:00 -
Link zu dieser Seite / Seite empfehlen

Das Wetter in ...